Rechercher aéroport 
image banner adimage banner adimage banner ad
image banner ad

CA38 - Totem Pole Ranch

Situé à Calpine, United States

ICAO - CA38, IATA -

Données fournies par Airmate  

Information générale

Coordonnées: N39°39'5" W120°26'19"
Élévation : 4986 feet MSL.
Variation magnétique : 16° East
Voir autres Aéroports à California

Données opérationnelles

Special qualification required
Heure actuelle UTC:
Heure actuelle locale:
Météo à : KTRK - Truckee-Tahoe ( 45 km )
METAR: KTRK 251155Z AUTO 00000KT 10SM OVC026 09/02 A3025 RMK AO2
TAF: KTRK 251120Z 2512/2612 VRB03KT P6SM BKN025 FM251600 VRB05KT 5SM FU HZ BKN040 FM252000 25009G18KT P6SM SCT090 SCT200 FM260300 VRB03KT P6SM SCT100 BKN200
Voir NOTAMs / SUP AIP / TFR affectant cet aéroport [VIEW]
Fréquences de communication: [VIEW]

Pistes:

Identifiant RWYQFULongueur (ft)Largeur (ft)SurfaceLDA (ft)
021800100EARTH
201800100EARTH

Coordonnées de l'aéroport

Adresse: Calpine United States

Vue satellite de CA38